Time;durP1;ratioP1;P1;durP2;ratioP2;P2;SDS_P1;SDS_P2;PMS_P1;PMS_P2;Temp;Humidity;BMP_temperature;BMP_pressure;BME280_temperature;BME280_humidity;BME280_pressure;Samples;Min_cycle;Max_cycle;Signal;HPM_P1;HPM_P2
2023/01/12 00:00:04;;;;;;;78.18;47.55;;;6.40;99.90;;;;;;5013512;28;20101;-72
2023/01/12 00:02:38;;;;;;;81.97;51.55;;;6.30;99.90;;;;;;5009554;28;20034;-70
2023/01/12 00:05:04;;;;;;;109.28;67.07;;;6.30;99.90;;;;;;5013718;28;20030;-72
2023/01/12 00:07:32;;;;;;;95.78;62.30;;;6.30;99.90;;;;;;5013072;28;20034;-71
2023/01/12 00:09:57;;;;;;;100.82;58.15;;;6.20;99.90;;;;;;5010351;28;20071;-71
2023/01/12 00:12:24;;;;;;;121.43;72.15;;;6.10;99.90;;;;;;5013278;28;20101;-71
2023/01/12 00:14:51;;;;;;;118.55;77.30;;;6.10;99.90;;;;;;4984933;28;20036;-71
2023/01/12 00:17:18;;;;;;;112.82;71.95;;;6.00;99.90;;;;;;5012642;28;20173;-71
2023/01/12 00:19:44;;;;;;;105.88;71.43;;;6.00;99.90;;;;;;5006142;28;20072;-71
2023/01/12 00:22:13;;;;;;;100.45;67.90;;;6.00;99.90;;;;;;4979482;28;20022;-71
2023/01/12 00:24:44;;;;;;;104.28;67.45;;;6.00;99.90;;;;;;5013315;28;20109;-71
2023/01/12 00:27:13;;;;;;;100.15;67.13;;;6.00;99.90;;;;;;5012881;28;20046;-71
2023/01/12 00:29:40;;;;;;;103.53;69.28;;;6.00;99.90;;;;;;5009088;28;20029;-71
2023/01/12 00:32:10;;;;;;;93.90;64.18;;;6.00;99.90;;;;;;5011107;28;20037;-71
2023/01/12 00:34:36;;;;;;;105.70;69.47;;;6.10;99.90;;;;;;5004271;28;20088;-71
2023/01/12 00:37:02;;;;;;;90.20;60.70;;;6.00;99.90;;;;;;4974859;28;20026;-70
2023/01/12 00:39:29;;;;;;;71.43;46.05;;;5.80;99.90;;;;;;5007204;28;20046;-70
2023/01/12 00:47:24;;;;;;;36.25;22.92;;;5.90;99.90;;;;;;4990908;28;20045;-71
2023/01/12 00:49:51;;;;;;;37.60;23.58;;;5.80;99.90;;;;;;5010574;28;20076;-71
2023/01/12 00:52:19;;;;;;;45.53;28.00;;;5.90;99.90;;;;;;5008088;28;20026;-71
2023/01/12 00:54:45;;;;;;;38.25;26.10;;;5.90;99.90;;;;;;5006860;28;20540;-70
2023/01/12 00:57:12;;;;;;;39.08;23.17;;;5.90;99.90;;;;;;5010310;28;20113;-70
2023/01/12 00:59:38;;;;;;;43.33;25.40;;;6.00;99.90;;;;;;5006853;28;20445;-70
2023/01/12 01:02:04;;;;;;;51.63;32.25;;;6.00;99.90;;;;;;5008754;28;20101;-70
2023/01/12 01:04:33;;;;;;;78.40;42.13;;;6.10;99.90;;;;;;4992605;28;20057;-71
2023/01/12 01:06:59;;;;;;;87.22;51.13;;;6.10;99.90;;;;;;4992547;28;20541;-71
2023/01/12 01:09:25;;;;;;;96.57;53.33;;;6.10;99.90;;;;;;5009857;28;20381;-70
2023/01/12 01:11:51;;;;;;;87.07;48.45;;;6.10;99.90;;;;;;5009087;28;20040;-71
2023/01/12 01:14:17;;;;;;;56.72;36.60;;;6.10;99.90;;;;;;5010165;28;20497;-70
2023/01/12 01:16:43;;;;;;;52.05;34.47;;;6.10;99.90;;;;;;5010574;28;20025;-71
2023/01/12 01:19:09;;;;;;;45.75;29.02;;;5.90;99.90;;;;;;5009266;28;20025;-71
2023/01/12 01:21:35;;;;;;;45.78;28.20;;;5.90;99.90;;;;;;4992182;28;20048;-70
2023/01/12 01:24:01;;;;;;;45.00;27.70;;;5.90;99.90;;;;;;5010276;28;20052;-72
2023/01/12 01:26:29;;;;;;;40.45;27.08;;;5.80;99.90;;;;;;4991609;28;20046;-71
2023/01/12 01:28:56;;;;;;;34.38;19.55;;;5.80;99.90;;;;;;5009405;28;20025;-72
2023/01/12 01:31:23;;;;;;;34.63;20.02;;;5.80;99.90;;;;;;5008024;28;20080;-70
2023/01/12 01:33:50;;;;;;;34.65;20.25;;;5.90;99.90;;;;;;5010403;28;20014;-70
2023/01/12 01:36:17;;;;;;;36.35;21.73;;;5.80;99.90;;;;;;5009697;28;20026;-72
2023/01/12 01:38:44;;;;;;;34.50;22.42;;;5.90;99.90;;;;;;4977351;28;20103;-69
2023/01/12 01:41:30;;;;;;;35.55;21.50;;;6.00;99.90;;;;;;5009511;28;20030;-69
2023/01/12 01:44:24;;;;;;;33.47;20.83;;;6.00;99.90;;;;;;5008879;28;20059;-71
2023/01/12 01:46:54;;;;;;;34.33;20.13;;;6.00;99.90;;;;;;4979587;28;20088;-69
2023/01/12 01:49:26;;;;;;;32.17;22.00;;;5.90;99.90;;;;;;5009789;28;20474;-69
2023/01/12 01:51:57;;;;;;;35.53;19.33;;;5.90;99.90;;;;;;5006404;28;20032;-69
2023/01/12 01:54:24;;;;;;;31.45;18.05;;;5.90;99.90;;;;;;5009229;28;20379;-69
2023/01/12 01:56:55;;;;;;;32.25;19.02;;;5.80;99.90;;;;;;4975502;28;20041;-69
2023/01/12 01:59:25;;;;;;;30.15;19.17;;;5.80;99.90;;;;;;4992143;28;20042;-68
2023/01/12 02:01:53;;;;;;;43.58;18.90;;;5.80;99.90;;;;;;5009330;28;20105;-71
2023/01/12 02:04:19;;;;;;;30.70;20.00;;;5.80;99.90;;;;;;5009959;28;20509;-69
2023/01/12 02:06:45;;;;;;;32.10;20.08;;;5.90;99.90;;;;;;5009312;28;20045;-71
2023/01/12 02:09:17;;;;;;;36.70;20.05;;;5.80;99.90;;;;;;5009293;28;20022;-71
2023/01/12 02:17:17;;;;;;;31.70;18.60;;;5.60;99.90;;;;;;5009742;28;20026;-71
2023/01/12 02:20:19;;;;;;;26.88;15.88;;;5.60;99.90;;;;;;5009532;28;20030;-69
2023/01/12 02:23:22;;;;;;;26.35;16.17;;;5.30;99.90;;;;;;5009018;28;20113;-71
2023/01/12 02:26:27;;;;;;;29.35;17.08;;;5.30;99.90;;;;;;5009512;28;20478;-73
2023/01/12 02:28:53;;;;;;;30.10;18.52;;;5.30;99.90;;;;;;5009430;28;20076;-69
2023/01/12 02:31:28;;;;;;;31.05;19.38;;;5.30;99.90;;;;;;5009298;28;20489;-69
2023/01/12 02:34:18;;;;;;;33.33;18.45;;;5.30;99.90;;;;;;5009305;28;20026;-69
2023/01/12 02:37:10;;;;;;;31.65;16.00;;;5.30;99.90;;;;;;5009436;28;20122;-68
2023/01/12 02:39:49;;;;;;;24.80;16.27;;;5.30;99.90;;;;;;5009769;28;20178;-69
2023/01/12 02:42:40;;;;;;;26.67;16.92;;;5.30;99.90;;;;;;5012720;28;20382;-69
2023/01/12 02:45:46;;;;;;;31.38;19.60;;;5.40;99.90;;;;;;5013232;28;20072;-68
2023/01/12 02:48:16;;;;;;;34.00;19.80;;;5.30;99.90;;;;;;5013560;28;20026;-69
2023/01/12 02:50:47;;;;;;;28.17;18.05;;;5.30;99.90;;;;;;5012571;28;20657;-70
2023/01/12 02:53:28;;;;;;;30.27;19.33;;;5.40;99.90;;;;;;5012477;28;20489;-70
2023/01/12 02:55:58;;;;;;;32.53;19.50;;;5.40;99.90;;;;;;5009099;28;20068;-69
2023/01/12 02:58:26;;;;;;;27.77;18.05;;;5.40;99.90;;;;;;5012233;28;20029;-69
2023/01/12 03:00:56;;;;;;;33.33;18.05;;;5.50;99.90;;;;;;5012709;28;20032;-69
2023/01/12 03:03:24;;;;;;;27.23;15.82;;;5.50;99.90;;;;;;5012375;28;20128;-70
2023/01/12 03:05:50;;;;;;;27.58;16.63;;;5.50;99.90;;;;;;4975236;28;20015;-72
2023/01/12 03:08:24;;;;;;;35.42;19.70;;;5.60;99.90;;;;;;5002619;28;20040;-72
2023/01/12 03:11:12;;;;;;;29.83;17.67;;;5.60;99.90;;;;;;5012185;28;20033;-70
2023/01/12 03:13:44;;;;;;;31.50;18.27;;;5.60;99.90;;;;;;5014405;28;20021;-71
2023/01/12 03:16:11;;;;;;;29.60;16.92;;;5.60;99.90;;;;;;5013147;28;20084;-71
2023/01/12 03:18:49;;;;;;;27.02;17.13;;;5.60;99.90;;;;;;5013221;28;20055;-71
2023/01/12 03:21:35;;;;;;;26.48;16.30;;;5.60;99.90;;;;;;5014616;28;20050;-70
2023/01/12 03:24:08;;;;;;;26.38;14.80;;;5.60;99.90;;;;;;5012064;28;20113;-70
2023/01/12 03:26:37;;;;;;;29.50;17.67;;;5.70;99.90;;;;;;4996699;28;20042;-71
2023/01/12 03:29:12;;;;;;;31.25;18.63;;;5.70;99.90;;;;;;5013071;28;20054;-71
2023/01/12 03:31:38;;;;;;;28.33;17.58;;;5.70;99.90;;;;;;5013429;28;20049;-71
2023/01/12 03:34:04;;;;;;;24.63;15.82;;;5.70;99.90;;;;;;5008926;28;20021;-71
2023/01/12 03:37:08;;;;;;;29.90;17.92;;;5.70;99.90;;;;;;5012180;28;20034;-71
2023/01/12 03:39:44;;;;;;;;;;;5.70;99.90;;;;;;4906273;29;20588;-70
2023/01/12 03:42:28;;;;;;;32.47;19.42;;;5.70;99.90;;;;;;4898329;29;19971;-70
2023/01/12 03:45:18;;;;;;;33.20;19.33;;;5.80;99.90;;;;;;4908729;29;20447;-71
2023/01/12 03:47:46;;;;;;;28.38;16.70;;;5.80;99.90;;;;;;4915351;29;20515;-70
2023/01/12 03:50:21;;;;;;;37.70;26.00;;;5.70;99.90;;;;;;4913200;28;20143;-72
2023/01/12 03:52:47;;;;;;;33.53;19.83;;;5.70;99.90;;;;;;4911648;29;20115;-71
2023/01/12 03:55:16;;;;;;;61.47;33.35;;;5.60;99.90;;;;;;4911463;29;20031;-71
2023/01/12 03:57:43;;;;;;;51.17;29.05;;;5.70;99.90;;;;;;4912031;29;20100;-70
2023/01/12 04:00:12;;;;;;;32.08;20.20;;;5.70;99.90;;;;;;4898542;29;20370;-71
2023/01/12 04:02:44;;;;;;;28.02;17.35;;;5.60;99.90;;;;;;4909688;29;20054;-70
2023/01/12 04:05:12;;;;;;;31.55;16.92;;;5.60;99.90;;;;;;4913881;29;20528;-70
2023/01/12 04:07:38;;;;;;;32.65;19.05;;;5.60;99.90;;;;;;4914411;29;20338;-71
2023/01/12 04:10:05;;;;;;;28.67;17.83;;;5.70;99.90;;;;;;4915136;29;20041;-71
2023/01/12 04:12:31;;;;;;;31.20;18.50;;;5.70;99.90;;;;;;4914823;29;20025;-72
2023/01/12 04:14:58;;;;;;;28.92;18.23;;;5.60;99.90;;;;;;4927539;28;20038;-71
2023/01/12 04:17:24;;;;;;;34.65;19.67;;;5.50;99.90;;;;;;5012261;28;20385;-70
2023/01/12 04:19:51;;;;;;;38.70;20.05;;;5.40;99.90;;;;;;5013240;28;20038;-70
2023/01/12 04:25:02;;;;;;;36.47;20.75;;;5.20;99.90;;;;;;5012885;28;20026;-71
2023/01/12 04:27:28;;;;;;;30.30;18.33;;;5.20;99.90;;;;;;5012146;28;20034;-71
2023/01/12 04:29:54;;;;;;;32.05;18.08;;;5.30;99.90;;;;;;5011352;28;20030;-70
2023/01/12 04:32:20;;;;;;;33.65;19.50;;;5.30;99.90;;;;;;4993743;28;20489;-72
2023/01/12 04:34:46;;;;;;;33.38;19.58;;;5.40;99.90;;;;;;4995346;28;20034;-70
2023/01/12 04:37:12;;;;;;;29.23;18.25;;;5.40;99.90;;;;;;4995319;28;20030;-73
2023/01/12 04:39:38;;;;;;;34.67;19.80;;;5.40;99.90;;;;;;5012922;28;20046;-71
2023/01/12 04:42:04;;;;;;;32.33;19.15;;;5.40;99.90;;;;;;5012597;28;20367;-70
2023/01/12 04:44:31;;;;;;;36.20;21.60;;;5.40;99.90;;;;;;5012892;28;20022;-70
2023/01/12 04:46:57;;;;;;;68.68;43.38;;;5.40;99.90;;;;;;5001571;28;20052;-70
2023/01/12 04:49:24;;;;;;;56.25;36.95;;;5.30;99.90;;;;;;5008522;28;20050;-70
2023/01/12 04:51:50;;;;;;;58.72;35.50;;;5.30;99.90;;;;;;5002916;28;20034;-70
2023/01/12 04:54:15;;;;;;;50.28;31.45;;;5.30;99.90;;;;;;5003775;28;20029;-70
2023/01/12 04:56:41;;;;;;;48.15;28.02;;;5.40;99.90;;;;;;5001706;28;20491;-70
2023/01/12 04:59:09;;;;;;;45.42;27.85;;;5.40;99.90;;;;;;5001554;28;20022;-70
2023/01/12 05:01:37;;;;;;;59.78;36.60;;;5.50;99.90;;;;;;5003120;28;20036;-71
2023/01/12 05:04:03;;;;;;;59.15;39.83;;;5.40;99.90;;;;;;4997842;28;20057;-71
2023/01/12 05:06:29;;;;;;;66.55;41.55;;;5.40;99.90;;;;;;5010017;28;20065;-72
2023/01/12 05:11:39;;;;;;;86.50;50.83;;;5.40;99.90;;;;;;4995023;28;20034;-72
2023/01/12 05:14:05;;;;;;;79.93;46.25;;;5.40;99.90;;;;;;4998399;28;20037;-72
2023/01/12 05:16:31;;;;;;;76.70;42.92;;;5.50;99.90;;;;;;5011966;28;20022;-72
2023/01/12 05:18:57;;;;;;;91.85;57.45;;;5.50;99.90;;;;;;5004442;28;20033;-72
2023/01/12 05:29:01;;;;;;;29.30;17.98;;;5.50;99.90;;;;;;4876358;29;20041;-70
2023/01/12 05:31:27;;;;;;;27.40;16.55;;;5.50;99.90;;;;;;4877214;29;20459;-70
2023/01/12 05:33:53;;;;;;;33.28;17.25;;;5.40;99.90;;;;;;4878177;29;20508;-70
2023/01/12 05:36:19;;;;;;;24.75;16.58;;;5.40;99.90;;;;;;4877044;29;20072;-70
2023/01/12 05:38:46;;;;;;;26.70;16.40;;;5.30;99.90;;;;;;4878631;29;20061;-71
2023/01/12 05:41:13;;;;;;;23.80;15.20;;;5.30;99.90;;;;;;4878114;29;20056;-71
2023/01/12 05:43:51;;;;;;;31.85;16.92;;;5.20;99.90;;;;;;4877859;29;20041;-71
2023/01/12 05:46:23;;;;;;;32.40;19.13;;;5.20;99.90;;;;;;4878399;29;20037;-71
2023/01/12 05:48:50;;;;;;;47.35;27.30;;;5.20;99.90;;;;;;4878087;29;20029;-71
2023/01/12 05:51:16;;;;;;;39.97;24.23;;;5.10;99.90;;;;;;4878296;29;20021;-70
2023/01/12 05:53:42;;;;;;;36.38;22.55;;;5.10;99.90;;;;;;4877660;29;20448;-71
2023/01/12 05:56:15;;;;;;;38.42;22.60;;;5.00;99.90;;;;;;4877897;29;20040;-71
2023/01/12 05:58:42;;;;;;;45.80;24.77;;;5.00;99.90;;;;;;4877909;29;20033;-71
2023/01/12 06:01:09;;;;;;;39.03;25.17;;;5.00;99.90;;;;;;4877787;29;20026;-71
2023/01/12 06:03:36;;;;;;;41.60;22.38;;;4.90;99.90;;;;;;4878240;29;20033;-71
2023/01/12 06:06:02;;;;;;;38.40;24.83;;;5.00;99.90;;;;;;4877767;29;20029;-70
2023/01/12 06:08:28;;;;;;;36.90;25.00;;;5.00;99.90;;;;;;4877886;29;20084;-71
2023/01/12 06:10:58;;;;;;;32.70;22.60;;;5.00;99.90;;;;;;4877676;29;20052;-71
2023/01/12 06:16:08;;;;;;;31.10;20.20;;;5.00;99.90;;;;;;4880217;29;20033;-70
2023/01/12 06:18:35;;;;;;;31.13;19.95;;;5.00;99.90;;;;;;4881050;29;20029;-73
2023/01/12 06:21:04;;;;;;;33.45;20.63;;;5.00;99.90;;;;;;4881793;29;20029;-71
2023/01/12 06:23:29;;;;;;;31.92;20.23;;;5.00;99.90;;;;;;4881458;29;20120;-71
2023/01/12 06:25:59;;;;;;;36.30;22.67;;;5.00;99.90;;;;;;4881291;29;20104;-71
2023/01/12 06:28:24;;;;;;;43.08;26.15;;;5.10;99.90;;;;;;4880669;29;20129;-71
2023/01/12 06:31:02;;;;;;;40.50;24.45;;;5.00;99.90;;;;;;4881455;29;20123;-71
2023/01/12 06:33:29;;;;;;;45.00;30.23;;;5.10;99.90;;;;;;4881363;29;20064;-71
2023/01/12 06:35:55;;;;;;;38.28;27.45;;;5.10;99.90;;;;;;4880170;29;20385;-71
2023/01/12 06:38:23;;;;;;;45.65;29.33;;;5.10;99.90;;;;;;4881010;29;20037;-70
2023/01/12 06:40:49;;;;;;;45.40;32.15;;;5.10;99.90;;;;;;4881344;29;20029;-71
2023/01/12 06:43:15;;;;;;;47.42;33.85;;;5.10;99.90;;;;;;4881193;29;20033;-70
2023/01/12 06:45:41;;;;;;;52.58;33.28;;;5.10;99.90;;;;;;4880993;29;20021;-70
2023/01/12 06:48:07;;;;;;;50.97;32.45;;;5.20;99.90;;;;;;4880687;29;20048;-71
2023/01/12 06:50:33;;;;;;;49.63;33.72;;;5.30;99.90;;;;;;4880933;29;20033;-71
2023/01/12 06:53:01;;;;;;;54.22;34.60;;;5.30;99.90;;;;;;4880748;29;20028;-71
2023/01/12 06:55:27;;;;;;;52.80;36.28;;;5.20;99.90;;;;;;4880836;29;20034;-70
2023/01/12 06:57:53;;;;;;;48.90;30.80;;;5.20;99.90;;;;;;4880706;29;20029;-71
2023/01/12 07:00:19;;;;;;;38.47;25.50;;;5.30;99.90;;;;;;4879805;29;20120;-71
2023/01/12 07:02:49;;;;;;;34.85;24.38;;;5.20;99.90;;;;;;4879326;29;20545;-70
2023/01/12 07:05:15;;;;;;;42.75;28.00;;;5.30;99.90;;;;;;4874638;29;20025;-70
2023/01/12 07:07:42;;;;;;;50.88;33.78;;;5.40;99.90;;;;;;4880455;29;20101;-71
2023/01/12 07:10:12;;;;;;;66.35;46.10;;;5.50;99.90;;;;;;4879493;29;20092;-71
2023/01/12 07:12:38;;;;;;;63.30;42.58;;;5.50;99.90;;;;;;4880838;29;20080;-72
2023/01/12 07:15:04;;;;;;;55.08;36.80;;;5.50;99.90;;;;;;4880155;29;20115;-71
2023/01/12 07:17:30;;;;;;;51.58;35.03;;;5.60;99.90;;;;;;4880794;29;20381;-71
2023/01/12 07:19:56;;;;;;;48.13;32.00;;;5.60;99.90;;;;;;4880386;29;20108;-72
2023/01/12 07:22:22;;;;;;;57.65;35.95;;;5.70;99.90;;;;;;4880708;29;20043;-71
2023/01/12 07:24:48;;;;;;;69.75;48.13;;;5.80;99.90;;;;;;4879948;29;20029;-72
2023/01/12 07:27:14;;;;;;;86.40;51.45;;;5.80;99.90;;;;;;4887542;29;20456;-71
2023/01/12 07:29:40;;;;;;;70.90;49.67;;;5.80;99.90;;;;;;4898970;29;20115;-71
2023/01/12 07:32:06;;;;;;;68.60;47.58;;;5.90;99.90;;;;;;4899304;29;20032;-71
2023/01/12 07:34:32;;;;;;;71.13;46.25;;;5.90;99.90;;;;;;4898670;29;20362;-71
2023/01/12 07:36:57;;;;;;;72.07;48.40;;;5.90;99.90;;;;;;4898979;29;20052;-72
2023/01/12 07:39:23;;;;;;;73.22;48.75;;;5.90;99.90;;;;;;4898699;29;20104;-71
2023/01/12 07:44:35;;;;;;;84.68;56.78;;;6.00;99.90;;;;;;4899030;29;20086;-71
2023/01/12 07:47:01;;;;;;;83.55;55.90;;;5.90;99.90;;;;;;4898262;29;20036;-72
2023/01/12 07:49:27;;;;;;;66.80;49.95;;;6.00;99.90;;;;;;4898796;29;20044;-71
2023/01/12 07:51:53;;;;;;;68.72;48.45;;;5.90;99.90;;;;;;4898578;29;20033;-71
2023/01/12 07:54:19;;;;;;;67.15;44.97;;;5.90;99.90;;;;;;4898741;29;20370;-71
2023/01/12 07:56:45;;;;;;;66.25;45.15;;;6.00;99.90;;;;;;4897811;29;20036;-71
2023/01/12 07:59:11;;;;;;;63.85;44.30;;;5.90;99.90;;;;;;4897948;29;20045;-71
2023/01/12 08:01:38;;;;;;;66.82;45.17;;;5.90;99.90;;;;;;4897997;29;20081;-71
2023/01/12 08:04:04;;;;;;;74.72;50.67;;;5.90;99.90;;;;;;4887132;29;20037;-71
2023/01/12 08:06:30;;;;;;;89.38;54.47;;;5.90;99.90;;;;;;4898561;29;20119;-71
2023/01/12 08:08:56;;;;;;;95.35;61.60;;;6.00;99.90;;;;;;4898265;29;20516;-71
2023/01/12 08:11:22;;;;;;;94.07;61.47;;;6.00;99.90;;;;;;4898408;29;20072;-71
2023/01/12 08:13:52;;;;;;;92.90;62.03;;;6.00;99.90;;;;;;4900704;29;20052;-71
2023/01/12 08:16:21;;;;;;;100.55;61.95;;;6.00;99.90;;;;;;4895506;29;20492;-71
2023/01/12 08:18:50;;;;;;;91.43;60.03;;;6.00;99.90;;;;;;4899913;29;20116;-71
2023/01/12 08:21:20;;;;;;;67.07;48.15;;;6.00;99.90;;;;;;4899995;29;20031;-72
2023/01/12 08:23:51;;;;;;;65.35;46.72;;;5.90;99.90;;;;;;4897977;29;20028;-71
2023/01/12 08:26:26;;;;;;;64.90;44.40;;;5.90;99.90;;;;;;4894950;29;20120;-71
2023/01/12 08:28:55;;;;;;;64.07;43.85;;;5.90;99.90;;;;;;4896840;29;20473;-71
2023/01/12 08:31:24;;;;;;;58.95;42.50;;;5.90;99.90;;;;;;4898648;29;20031;-72
2023/01/12 08:33:52;;;;;;;61.85;44.95;;;5.90;99.90;;;;;;4895972;29;20392;-72
2023/01/12 08:36:18;;;;;;;67.93;46.13;;;5.90;99.90;;;;;;4898222;29;20112;-71
2023/01/12 08:38:45;;;;;;;60.88;41.85;;;5.80;99.90;;;;;;4896711;29;20044;-71
2023/01/12 08:44:01;;;;;;;67.70;44.33;;;5.70;99.90;;;;;;4903774;29;20099;-69
2023/01/12 08:46:38;;;;;;;66.18;45.85;;;5.60;99.90;;;;;;4897267;29;20036;-71
2023/01/12 08:49:10;;;;;;;69.90;48.90;;;5.70;99.90;;;;;;4894536;29;20028;-71
2023/01/12 08:51:38;;;;;;;66.50;43.70;;;5.60;99.90;;;;;;4902220;29;20032;-71
2023/01/12 08:54:05;;;;;;;63.67;43.92;;;5.60;99.90;;;;;;4897836;29;20024;-71
2023/01/12 08:56:32;;;;;;;57.92;40.53;;;5.60;99.90;;;;;;4897299;29;20039;-71
2023/01/12 08:58:58;;;;;;;62.20;40.45;;;5.70;99.90;;;;;;4897169;29;20028;-71
2023/01/12 09:01:23;;;;;;;58.97;40.58;;;5.70;99.90;;;;;;4897589;29;20370;-72
2023/01/12 09:03:49;;;;;;;58.53;38.53;;;5.80;99.90;;;;;;4897315;29;20469;-73
2023/01/12 09:06:18;;;;;;;54.60;36.22;;;5.90;99.90;;;;;;4897482;29;20028;-73
2023/01/12 09:08:45;;;;;;;55.22;35.38;;;6.00;99.90;;;;;;4897141;29;20040;-73
2023/01/12 09:11:13;;;;;;;89.75;50.47;;;6.10;99.90;;;;;;4897229;29;20033;-73
2023/01/12 09:13:39;;;;;;;89.88;50.88;;;6.20;99.90;;;;;;4897290;29;20028;-73
2023/01/12 09:16:12;;;;;;;71.85;44.78;;;6.30;99.90;;;;;;4897119;29;20092;-73
2023/01/12 09:18:38;;;;;;;59.75;36.78;;;6.40;99.90;;;;;;4897089;29;20496;-73
2023/01/12 09:21:06;;;;;;;46.08;33.75;;;6.50;99.90;;;;;;4897161;29;20025;-72
2023/01/12 09:23:33;;;;;;;39.58;27.83;;;6.60;99.90;;;;;;4897300;29;20032;-73
2023/01/12 09:26:07;;;;;;;46.17;30.70;;;6.70;99.90;;;;;;4896884;29;20527;-72
2023/01/12 09:28:33;;;;;;;42.42;27.42;;;6.70;99.90;;;;;;4896959;29;20584;-72
2023/01/12 09:31:04;;;;;;;44.90;30.23;;;6.70;99.90;;;;;;4896757;29;20603;-72
2023/01/12 09:33:31;;;;;;;41.35;29.30;;;6.80;99.90;;;;;;4896997;29;20369;-73
2023/01/12 09:36:08;;;;;;;46.13;29.75;;;6.70;99.90;;;;;;4896827;29;20104;-72
2023/01/12 09:38:35;;;;;;;43.08;27.40;;;6.70;99.90;;;;;;4896877;29;20093;-71
2023/01/12 09:41:09;;;;;;;40.03;26.55;;;6.80;99.90;;;;;;4897000;29;20043;-70
2023/01/12 09:49:17;;;;;;;49.22;26.23;;;7.00;99.90;;;;;;4900191;29;20040;-71
2023/01/12 09:51:58;;;;;;;40.88;27.13;;;7.10;99.90;;;;;;4902953;29;20108;-72
2023/01/12 09:54:24;;;;;;;35.83;23.77;;;7.20;99.90;;;;;;4903146;29;20032;-73
2023/01/12 09:57:15;;;;;;;37.05;23.85;;;7.20;99.90;;;;;;4903239;29;20028;-70
2023/01/12 09:59:52;;;;;;;40.53;25.58;;;7.20;99.90;;;;;;4903227;29;20049;-72
2023/01/12 10:02:19;;;;;;;34.92;23.05;;;7.20;99.90;;;;;;4902730;29;20028;-72
2023/01/12 10:04:48;;;;;;;38.30;26.30;;;7.30;99.90;;;;;;4903266;29;20421;-72
2023/01/12 10:07:16;;;;;;;33.25;19.90;;;7.40;99.90;;;;;;4902618;29;20075;-72
2023/01/12 10:09:42;;;;;;;30.45;19.10;;;7.40;99.90;;;;;;4902933;29;20020;-72
2023/01/12 10:12:14;;;;;;;32.33;19.02;;;7.30;99.90;;;;;;4902714;29;20029;-72
2023/01/12 10:14:58;;;;;;;29.00;18.00;;;7.40;99.90;;;;;;4903303;29;20056;-72
2023/01/12 10:17:39;;;;;;;26.23;16.98;;;7.50;99.90;;;;;;4902920;29;20096;-72
2023/01/12 10:20:16;;;;;;;29.95;19.08;;;7.40;99.90;;;;;;4902931;29;20108;-72
2023/01/12 10:22:54;;;;;;;28.80;18.40;;;7.40;99.90;;;;;;4902916;29;20107;-72
2023/01/12 10:25:36;;;;;;;29.90;18.02;;;7.40;99.90;;;;;;4902584;29;20038;-72
2023/01/12 10:28:23;;;;;;;31.30;18.35;;;7.40;99.90;;;;;;4902827;29;20132;-72
2023/01/12 10:30:49;;;;;;;29.45;17.88;;;7.50;99.90;;;;;;4893116;29;20404;-72
2023/01/12 10:33:24;;;;;;;28.83;18.60;;;7.60;99.90;;;;;;4902784;29;20032;-72
2023/01/12 10:36:07;;;;;;;28.55;18.33;;;7.70;99.90;;;;;;4901700;29;20437;-72
2023/01/12 10:39:02;;;;;;;26.52;17.02;;;7.80;99.90;;;;;;4902470;29;20047;-71
2023/01/12 10:41:31;;;;;;;30.02;19.05;;;7.90;99.90;;;;;;4902378;29;20025;-72
2023/01/12 10:43:59;;;;;;;26.42;18.20;;;7.90;99.90;;;;;;4902981;29;20021;-72
2023/01/12 10:46:30;;;;;;;26.35;16.95;;;7.90;99.90;;;;;;4902247;29;20507;-72
2023/01/12 10:49:15;;;;;;;30.65;17.38;;;8.00;99.90;;;;;;4903002;29;20037;-73
2023/01/12 10:52:00;;;;;;;29.45;17.55;;;8.00;99.90;;;;;;4902904;29;20081;-71
2023/01/12 10:54:30;;;;;;;32.88;18.27;;;8.10;99.90;;;;;;4902453;29;20137;-72
2023/01/12 10:57:03;;;;;;;27.02;17.48;;;8.00;99.90;;;;;;4902804;29;20039;-72
2023/01/12 10:59:34;;;;;;;31.63;19.00;;;8.00;99.90;;;;;;4902338;29;20112;-72
2023/01/12 11:02:04;;;;;;;34.78;20.83;;;7.90;99.90;;;;;;4899118;29;20095;-72
2023/01/12 11:04:35;;;;;;;28.20;19.20;;;7.90;99.90;;;;;;4899615;29;20141;-72
2023/01/12 11:07:17;;;;;;;28.95;18.90;;;7.90;99.90;;;;;;4898165;29;20040;-71
2023/01/12 11:09:44;;;;;;;29.63;18.30;;;8.00;99.90;;;;;;4897512;29;20039;-71
2023/01/12 11:12:33;;;;;;;31.25;18.00;;;8.10;99.90;;;;;;4903675;29;20033;-71
2023/01/12 11:15:11;;;;;;;27.17;17.00;;;7.90;99.90;;;;;;4898055;29;20032;-71
2023/01/12 11:18:14;;;;;;;29.10;19.73;;;7.90;99.90;;;;;;4899272;29;20033;-71
2023/01/12 11:20:46;;;;;;;39.38;20.15;;;7.80;99.90;;;;;;4899269;29;20057;-71
2023/01/12 11:23:19;;;;;;;32.53;20.00;;;8.00;99.90;;;;;;4897965;29;20119;-71
2023/01/12 11:25:48;;;;;;;35.70;21.73;;;8.00;99.90;;;;;;4898939;29;20089;-72
2023/01/12 11:28:29;;;;;;;28.92;18.95;;;8.10;99.90;;;;;;4898681;29;20048;-71
2023/01/12 11:31:03;;;;;;;32.90;21.00;;;8.10;99.90;;;;;;4899153;29;20036;-72
2023/01/12 11:33:33;;;;;;;31.52;20.45;;;8.20;99.90;;;;;;4897373;29;20441;-71
2023/01/12 11:36:08;;;;;;;33.90;21.10;;;8.30;99.90;;;;;;4898529;29;20024;-71
2023/01/12 11:38:42;;;;;;;36.30;22.70;;;8.30;99.90;;;;;;4898024;29;20029;-71
2023/01/12 11:41:26;;;;;;;32.38;22.00;;;8.50;99.90;;;;;;4898608;29;20501;-72
2023/01/12 11:44:14;;;;;;;33.60;21.42;;;8.60;99.90;;;;;;4897995;29;20028;-72
2023/01/12 11:46:43;;;;;;;35.30;23.42;;;8.60;99.90;;;;;;4898054;29;20037;-72
2023/01/12 11:49:36;;;;;;;36.65;24.60;;;8.70;99.90;;;;;;4898769;29;20024;-71
2023/01/12 11:52:01;;;;;;;34.22;23.33;;;8.70;99.90;;;;;;4902941;29;20043;-72
2023/01/12 11:54:29;;;;;;;38.28;24.40;;;8.80;99.90;;;;;;4897763;29;20029;-72
2023/01/12 11:57:14;;;;;;;35.95;24.98;;;8.90;99.90;;;;;;4900043;29;20025;-71
2023/01/12 11:59:58;;;;;;;36.17;25.00;;;8.90;99.90;;;;;;4898740;29;20131;-72
2023/01/12 12:02:43;;;;;;;34.63;22.95;;;9.00;99.90;;;;;;4896496;29;20032;-72
2023/01/12 12:05:14;;;;;;;33.83;21.60;;;9.00;99.90;;;;;;4892462;29;20044;-71
2023/01/12 12:08:13;;;;;;;35.90;21.80;;;8.90;99.90;;;;;;4902497;29;20044;-72
2023/01/12 12:11:05;;;;;;;29.45;18.02;;;8.80;99.90;;;;;;4893711;29;20032;-71
2023/01/12 12:14:04;;;;;;;30.90;17.83;;;8.90;99.90;;;;;;4896375;29;20043;-72
2023/01/12 12:16:49;;;;;;;26.25;16.52;;;8.90;99.90;;;;;;4897492;29;20032;-72
2023/01/12 12:19:22;;;;;;;27.77;15.30;;;8.80;99.90;;;;;;4898122;29;20056;-72
2023/01/12 12:22:14;;;;;;;31.17;16.92;;;8.80;99.90;;;;;;4897660;29;20056;-72
2023/01/12 12:25:01;;;;;;;30.98;17.67;;;8.80;99.90;;;;;;4896991;29;20025;-71
2023/01/12 12:27:27;;;;;;;29.23;17.48;;;8.90;99.90;;;;;;4870686;29;20045;-72
2023/01/12 12:30:03;;;;;;;33.35;19.38;;;8.90;99.90;;;;;;4862255;29;20039;-71
2023/01/12 12:32:38;;;;;;;24.00;15.70;;;8.80;99.90;;;;;;4879677;29;20424;-72
2023/01/12 12:35:22;;;;;;;31.38;17.90;;;8.90;99.90;;;;;;4878631;29;20033;-72
2023/01/12 12:38:03;;;;;;;24.77;16.08;;;8.80;99.90;;;;;;4879201;29;20386;-72
2023/01/12 12:46:52;;;;;;;26.30;17.33;;;8.70;99.90;;;;;;4839642;29;20046;-71
2023/01/12 12:49:24;;;;;;;28.88;17.67;;;8.70;99.90;;;;;;4839708;29;20037;-71
2023/01/12 12:51:51;;;;;;;32.15;15.38;;;8.70;99.90;;;;;;4842145;29;20473;-71
2023/01/12 12:54:20;;;;;;;25.30;14.95;;;8.80;99.90;;;;;;4839633;29;20421;-71
2023/01/12 12:56:47;;;;;;;26.42;15.45;;;8.60;99.90;;;;;;4839506;29;20041;-73
2023/01/12 12:59:39;;;;;;;21.27;13.05;;;8.60;99.90;;;;;;4838706;29;20041;-71
2023/01/12 13:02:34;;;;;;;21.92;11.77;;;8.50;99.90;;;;;;4754639;30;20496;-71
2023/01/12 13:05:02;;;;;;;21.48;12.40;;;8.50;99.90;;;;;;4752769;30;20040;-72
2023/01/12 13:07:32;;;;;;;23.50;12.75;;;8.60;99.90;;;;;;4751649;30;20059;-72
2023/01/12 13:10:17;;;;;;;21.10;13.45;;;8.60;99.90;;;;;;4750352;30;20039;-71
2023/01/12 13:12:43;;;;;;;27.77;14.02;;;8.60;99.90;;;;;;4752302;30;20062;-72
2023/01/12 13:15:22;;;;;;;25.73;13.85;;;8.60;99.90;;;;;;4751598;30;20032;-72
2023/01/12 13:17:49;;;;;;;26.77;13.75;;;8.50;99.90;;;;;;4755318;30;20115;-71
2023/01/12 13:20:18;;;;;;;21.17;13.40;;;8.60;99.90;;;;;;4776158;29;20041;-71
2023/01/12 13:22:49;;;;;;;26.05;14.40;;;8.50;99.90;;;;;;4796968;29;20080;-72
2023/01/12 13:25:14;;;;;;;21.35;12.82;;;8.40;99.90;;;;;;4784613;29;20070;-72
2023/01/12 13:28:01;;;;;;;21.85;14.25;;;8.40;99.90;;;;;;4796849;29;20090;-72
2023/01/12 13:30:27;;;;;;;24.38;14.70;;;8.40;99.90;;;;;;4816245;29;20499;-72
2023/01/12 13:33:14;;;;;;;23.77;14.32;;;8.30;99.90;;;;;;4816415;29;20080;-72
2023/01/12 13:35:42;;;;;;;24.73;15.43;;;8.30;99.90;;;;;;4802718;29;20046;-72
2023/01/12 13:38:26;;;;;;;22.33;13.85;;;8.40;99.90;;;;;;4822852;29;20044;-72
2023/01/12 13:40:51;;;;;;;;;;;8.40;99.90;;;;;;4897209;29;20495;-72
2023/01/12 13:43:29;;;;;;;38.10;17.25;;;8.40;99.90;;;;;;4896675;29;19907;-72